sensor_id;sensor_type;location;lat;lon;timestamp;P1;durP1;ratioP1;P2;durP2;ratioP2
38224;SDS011;24025;48.138;11.428;2023-08-06T00:02:19;3.37;;;2.40;;
38224;SDS011;24025;48.138;11.428;2023-08-06T00:04:50;3.20;;;2.15;;
38224;SDS011;24025;48.138;11.428;2023-08-06T00:07:22;2.67;;;2.47;;
38224;SDS011;24025;48.138;11.428;2023-08-06T00:09:53;3.17;;;2.40;;
38224;SDS011;24025;48.138;11.428;2023-08-06T00:12:25;2.73;;;2.40;;
38224;SDS011;24025;48.138;11.428;2023-08-06T00:14:56;2.10;;;1.90;;
38224;SDS011;24025;48.138;11.428;2023-08-06T00:17:28;2.07;;;1.73;;
38224;SDS011;24025;48.138;11.428;2023-08-06T00:19:59;3.88;;;2.10;;
38224;SDS011;24025;48.138;11.428;2023-08-06T00:22:36;3.03;;;1.98;;
38224;SDS011;24025;48.138;11.428;2023-08-06T00:25:08;5.00;;;1.80;;
38224;SDS011;24025;48.138;11.428;2023-08-06T00:27:40;1.92;;;1.55;;
38224;SDS011;24025;48.138;11.428;2023-08-06T00:30:11;2.77;;;1.80;;
38224;SDS011;24025;48.138;11.428;2023-08-06T00:32:42;2.87;;;1.70;;
38224;SDS011;24025;48.138;11.428;2023-08-06T00:35:16;2.55;;;1.75;;
38224;SDS011;24025;48.138;11.428;2023-08-06T00:37:48;2.03;;;1.23;;
38224;SDS011;24025;48.138;11.428;2023-08-06T00:40:20;2.80;;;1.40;;
38224;SDS011;24025;48.138;11.428;2023-08-06T00:42:52;1.88;;;1.75;;
38224;SDS011;24025;48.138;11.428;2023-08-06T00:45:24;1.70;;;1.00;;
38224;SDS011;24025;48.138;11.428;2023-08-06T00:47:56;1.60;;;1.15;;
38224;SDS011;24025;48.138;11.428;2023-08-06T00:50:27;1.52;;;1.35;;
38224;SDS011;24025;48.138;11.428;2023-08-06T00:52:59;2.57;;;1.27;;
38224;SDS011;24025;48.138;11.428;2023-08-06T00:55:30;1.92;;;1.50;;
38224;SDS011;24025;48.138;11.428;2023-08-06T00:58:02;4.07;;;1.50;;
38224;SDS011;24025;48.138;11.428;2023-08-06T01:00:33;2.97;;;2.00;;
38224;SDS011;24025;48.138;11.428;2023-08-06T01:03:05;3.88;;;1.83;;
38224;SDS011;24025;48.138;11.428;2023-08-06T01:05:36;2.10;;;1.70;;
38224;SDS011;24025;48.138;11.428;2023-08-06T01:08:12;2.15;;;1.95;;
38224;SDS011;24025;48.138;11.428;2023-08-06T01:15:54;5.38;;;3.17;;
38224;SDS011;24025;48.138;11.428;2023-08-06T01:18:28;6.38;;;2.85;;
38224;SDS011;24025;48.138;11.428;2023-08-06T01:21:01;7.22;;;2.67;;
38224;SDS011;24025;48.138;11.428;2023-08-06T01:23:32;3.45;;;2.92;;
38224;SDS011;24025;48.138;11.428;2023-08-06T01:31:44;4.70;;;2.78;;
38224;SDS011;24025;48.138;11.428;2023-08-06T01:34:22;6.07;;;3.08;;
38224;SDS011;24025;48.138;11.428;2023-08-06T01:36:54;4.07;;;2.88;;
38224;SDS011;24025;48.138;11.428;2023-08-06T01:39:25;4.03;;;2.87;;
38224;SDS011;24025;48.138;11.428;2023-08-06T01:41:57;2.97;;;2.70;;
38224;SDS011;24025;48.138;11.428;2023-08-06T01:44:28;2.97;;;2.67;;
38224;SDS011;24025;48.138;11.428;2023-08-06T01:47:00;8.90;;;2.53;;
38224;SDS011;24025;48.138;11.428;2023-08-06T01:49:31;4.73;;;3.00;;
38224;SDS011;24025;48.138;11.428;2023-08-06T01:52:03;2.50;;;2.30;;
38224;SDS011;24025;48.138;11.428;2023-08-06T01:54:34;4.07;;;2.10;;
38224;SDS011;24025;48.138;11.428;2023-08-06T01:57:05;2.23;;;1.80;;
38224;SDS011;24025;48.138;11.428;2023-08-06T01:59:37;4.50;;;1.95;;
38224;SDS011;24025;48.138;11.428;2023-08-06T02:02:08;2.07;;;1.60;;
38224;SDS011;24025;48.138;11.428;2023-08-06T02:04:40;21.13;;;4.25;;
38224;SDS011;24025;48.138;11.428;2023-08-06T02:07:11;2.53;;;1.43;;
38224;SDS011;24025;48.138;11.428;2023-08-06T02:09:42;3.90;;;1.70;;
38224;SDS011;24025;48.138;11.428;2023-08-06T02:12:14;2.53;;;1.75;;
38224;SDS011;24025;48.138;11.428;2023-08-06T02:14:45;4.73;;;1.77;;
38224;SDS011;24025;48.138;11.428;2023-08-06T02:17:17;4.27;;;1.70;;
38224;SDS011;24025;48.138;11.428;2023-08-06T02:19:50;1.75;;;1.48;;
38224;SDS011;24025;48.138;11.428;2023-08-06T02:22:22;4.83;;;1.57;;
38224;SDS011;24025;48.138;11.428;2023-08-06T02:27:25;1.80;;;1.40;;
38224;SDS011;24025;48.138;11.428;2023-08-06T02:29:57;4.47;;;1.63;;
38224;SDS011;24025;48.138;11.428;2023-08-06T02:32:28;1.70;;;1.30;;
38224;SDS011;24025;48.138;11.428;2023-08-06T02:35:01;1.45;;;1.20;;
38224;SDS011;24025;48.138;11.428;2023-08-06T02:37:33;3.40;;;1.38;;
38224;SDS011;24025;48.138;11.428;2023-08-06T02:40:05;5.35;;;1.42;;
38224;SDS011;24025;48.138;11.428;2023-08-06T02:42:37;4.97;;;1.42;;
38224;SDS011;24025;48.138;11.428;2023-08-06T02:45:08;4.80;;;1.63;;
38224;SDS011;24025;48.138;11.428;2023-08-06T02:47:39;2.63;;;1.17;;
38224;SDS011;24025;48.138;11.428;2023-08-06T02:50:11;6.27;;;1.17;;
38224;SDS011;24025;48.138;11.428;2023-08-06T02:52:42;4.10;;;1.20;;
38224;SDS011;24025;48.138;11.428;2023-08-06T02:55:16;2.70;;;1.10;;
38224;SDS011;24025;48.138;11.428;2023-08-06T02:57:48;1.80;;;1.00;;
38224;SDS011;24025;48.138;11.428;2023-08-06T03:00:19;2.50;;;1.40;;
38224;SDS011;24025;48.138;11.428;2023-08-06T03:02:50;2.07;;;1.33;;
38224;SDS011;24025;48.138;11.428;2023-08-06T03:05:22;2.58;;;1.30;;
38224;SDS011;24025;48.138;11.428;2023-08-06T03:07:53;5.00;;;1.30;;
38224;SDS011;24025;48.138;11.428;2023-08-06T03:10:24;2.97;;;1.30;;
38224;SDS011;24025;48.138;11.428;2023-08-06T03:12:56;3.77;;;1.37;;
38224;SDS011;24025;48.138;11.428;2023-08-06T03:15:27;2.43;;;1.10;;
38224;SDS011;24025;48.138;11.428;2023-08-06T03:17:59;1.88;;;0.93;;
38224;SDS011;24025;48.138;11.428;2023-08-06T03:20:31;2.70;;;1.30;;
38224;SDS011;24025;48.138;11.428;2023-08-06T03:23:03;2.30;;;1.42;;
38224;SDS011;24025;48.138;11.428;2023-08-06T03:25:35;2.67;;;1.17;;
38224;SDS011;24025;48.138;11.428;2023-08-06T03:28:06;1.27;;;1.13;;
38224;SDS011;24025;48.138;11.428;2023-08-06T03:30:37;3.97;;;1.10;;
38224;SDS011;24025;48.138;11.428;2023-08-06T03:33:09;1.13;;;0.77;;
38224;SDS011;24025;48.138;11.428;2023-08-06T03:35:40;1.20;;;1.08;;
38224;SDS011;24025;48.138;11.428;2023-08-06T03:38:12;1.57;;;1.33;;
38224;SDS011;24025;48.138;11.428;2023-08-06T03:40:43;1.83;;;1.20;;
38224;SDS011;24025;48.138;11.428;2023-08-06T03:43:15;1.93;;;1.03;;
38224;SDS011;24025;48.138;11.428;2023-08-06T03:45:46;1.88;;;1.05;;
38224;SDS011;24025;48.138;11.428;2023-08-06T03:48:17;1.95;;;1.17;;
38224;SDS011;24025;48.138;11.428;2023-08-06T03:50:49;4.07;;;1.40;;
38224;SDS011;24025;48.138;11.428;2023-08-06T03:53:20;5.17;;;1.20;;
38224;SDS011;24025;48.138;11.428;2023-08-06T03:55:51;2.47;;;1.20;;
38224;SDS011;24025;48.138;11.428;2023-08-06T03:58:23;1.30;;;0.90;;
38224;SDS011;24025;48.138;11.428;2023-08-06T04:01:01;2.57;;;1.27;;
38224;SDS011;24025;48.138;11.428;2023-08-06T04:03:32;1.48;;;1.15;;
38224;SDS011;24025;48.138;11.428;2023-08-06T04:06:04;1.40;;;0.90;;
38224;SDS011;24025;48.138;11.428;2023-08-06T04:08:35;2.10;;;1.38;;
38224;SDS011;24025;48.138;11.428;2023-08-06T04:11:07;2.50;;;1.40;;
38224;SDS011;24025;48.138;11.428;2023-08-06T04:13:38;4.60;;;1.57;;
38224;SDS011;24025;48.138;11.428;2023-08-06T04:16:10;3.53;;;1.27;;
38224;SDS011;24025;48.138;11.428;2023-08-06T04:18:41;2.05;;;1.33;;
38224;SDS011;24025;48.138;11.428;2023-08-06T04:21:12;3.08;;;1.17;;
38224;SDS011;24025;48.138;11.428;2023-08-06T04:23:44;1.77;;;1.43;;
38224;SDS011;24025;48.138;11.428;2023-08-06T04:26:15;4.70;;;1.10;;
38224;SDS011;24025;48.138;11.428;2023-08-06T04:28:47;3.07;;;1.13;;
38224;SDS011;24025;48.138;11.428;2023-08-06T04:31:18;5.53;;;1.60;;
38224;SDS011;24025;48.138;11.428;2023-08-06T04:33:49;1.90;;;0.90;;
38224;SDS011;24025;48.138;11.428;2023-08-06T04:36:22;2.53;;;1.23;;
38224;SDS011;24025;48.138;11.428;2023-08-06T04:38:53;1.75;;;1.10;;
38224;SDS011;24025;48.138;11.428;2023-08-06T04:41:25;2.33;;;1.37;;
38224;SDS011;24025;48.138;11.428;2023-08-06T04:43:56;1.52;;;1.00;;
38224;SDS011;24025;48.138;11.428;2023-08-06T04:46:28;2.30;;;1.10;;
38224;SDS011;24025;48.138;11.428;2023-08-06T04:48:59;1.97;;;1.20;;
38224;SDS011;24025;48.138;11.428;2023-08-06T04:51:30;2.43;;;1.23;;
38224;SDS011;24025;48.138;11.428;2023-08-06T04:54:02;3.63;;;1.27;;
38224;SDS011;24025;48.138;11.428;2023-08-06T04:56:33;3.53;;;1.13;;
38224;SDS011;24025;48.138;11.428;2023-08-06T04:59:05;1.10;;;1.00;;
38224;SDS011;24025;48.138;11.428;2023-08-06T05:01:37;2.67;;;0.88;;
38224;SDS011;24025;48.138;11.428;2023-08-06T05:04:08;1.80;;;1.30;;
38224;SDS011;24025;48.138;11.428;2023-08-06T05:06:40;2.58;;;1.10;;
38224;SDS011;24025;48.138;11.428;2023-08-06T05:09:12;2.45;;;0.90;;
38224;SDS011;24025;48.138;11.428;2023-08-06T05:11:43;5.67;;;1.10;;
38224;SDS011;24025;48.138;11.428;2023-08-06T05:14:15;2.77;;;1.47;;
38224;SDS011;24025;48.138;11.428;2023-08-06T05:16:46;1.93;;;1.10;;
38224;SDS011;24025;48.138;11.428;2023-08-06T05:19:17;1.60;;;1.00;;
38224;SDS011;24025;48.138;11.428;2023-08-06T05:21:49;2.63;;;1.02;;
38224;SDS011;24025;48.138;11.428;2023-08-06T05:24:21;1.25;;;1.00;;
38224;SDS011;24025;48.138;11.428;2023-08-06T05:26:53;4.65;;;0.90;;
38224;SDS011;24025;48.138;11.428;2023-08-06T05:29:24;0.83;;;0.70;;
38224;SDS011;24025;48.138;11.428;2023-08-06T05:31:56;1.58;;;0.85;;
38224;SDS011;24025;48.138;11.428;2023-08-06T05:34:28;1.27;;;1.05;;
38224;SDS011;24025;48.138;11.428;2023-08-06T05:36:59;3.43;;;1.13;;
38224;SDS011;24025;48.138;11.428;2023-08-06T05:39:30;1.10;;;1.00;;
38224;SDS011;24025;48.138;11.428;2023-08-06T05:42:02;1.25;;;0.82;;
38224;SDS011;24025;48.138;11.428;2023-08-06T05:44:34;2.22;;;1.35;;
38224;SDS011;24025;48.138;11.428;2023-08-06T05:47:05;2.47;;;1.67;;
38224;SDS011;24025;48.138;11.428;2023-08-06T05:49:36;3.20;;;1.00;;
38224;SDS011;24025;48.138;11.428;2023-08-06T05:52:08;4.50;;;1.10;;
38224;SDS011;24025;48.138;11.428;2023-08-06T05:54:39;4.95;;;0.98;;
38224;SDS011;24025;48.138;11.428;2023-08-06T05:57:11;2.35;;;1.00;;
38224;SDS011;24025;48.138;11.428;2023-08-06T05:59:43;1.60;;;0.90;;
38224;SDS011;24025;48.138;11.428;2023-08-06T06:02:14;2.80;;;0.75;;
38224;SDS011;24025;48.138;11.428;2023-08-06T06:04:46;1.48;;;1.08;;
38224;SDS011;24025;48.138;11.428;2023-08-06T06:07:17;0.83;;;0.80;;
38224;SDS011;24025;48.138;11.428;2023-08-06T06:09:48;1.90;;;0.90;;
38224;SDS011;24025;48.138;11.428;2023-08-06T06:12:20;2.03;;;0.93;;
38224;SDS011;24025;48.138;11.428;2023-08-06T06:14:53;1.35;;;1.02;;
38224;SDS011;24025;48.138;11.428;2023-08-06T06:17:25;2.30;;;1.23;;
38224;SDS011;24025;48.138;11.428;2023-08-06T06:19:56;3.17;;;1.00;;
38224;SDS011;24025;48.138;11.428;2023-08-06T06:22:27;2.27;;;1.00;;
38224;SDS011;24025;48.138;11.428;2023-08-06T06:24:59;2.33;;;1.05;;
38224;SDS011;24025;48.138;11.428;2023-08-06T06:27:31;1.00;;;0.80;;
38224;SDS011;24025;48.138;11.428;2023-08-06T06:30:02;1.77;;;0.93;;
38224;SDS011;24025;48.138;11.428;2023-08-06T06:32:35;1.23;;;0.80;;
38224;SDS011;24025;48.138;11.428;2023-08-06T06:35:06;1.38;;;0.82;;
38224;SDS011;24025;48.138;11.428;2023-08-06T06:37:38;3.08;;;0.82;;
38224;SDS011;24025;48.138;11.428;2023-08-06T06:40:09;1.80;;;0.90;;
38224;SDS011;24025;48.138;11.428;2023-08-06T06:42:41;1.45;;;0.80;;
38224;SDS011;24025;48.138;11.428;2023-08-06T06:45:12;3.17;;;0.75;;
38224;SDS011;24025;48.138;11.428;2023-08-06T06:47:44;0.90;;;0.60;;
38224;SDS011;24025;48.138;11.428;2023-08-06T06:50:15;1.23;;;0.70;;
38224;SDS011;24025;48.138;11.428;2023-08-06T06:52:47;2.22;;;0.98;;
38224;SDS011;24025;48.138;11.428;2023-08-06T06:55:18;1.42;;;0.70;;
38224;SDS011;24025;48.138;11.428;2023-08-06T06:57:50;1.50;;;0.68;;
38224;SDS011;24025;48.138;11.428;2023-08-06T07:00:21;2.17;;;0.90;;
38224;SDS011;24025;48.138;11.428;2023-08-06T07:02:52;5.05;;;0.90;;
38224;SDS011;24025;48.138;11.428;2023-08-06T07:05:24;0.57;;;0.40;;
38224;SDS011;24025;48.138;11.428;2023-08-06T07:07:55;1.00;;;0.33;;
38224;SDS011;24025;48.138;11.428;2023-08-06T07:10:27;1.60;;;0.68;;
38224;SDS011;24025;48.138;11.428;2023-08-06T07:12:58;0.93;;;0.43;;
38224;SDS011;24025;48.138;11.428;2023-08-06T07:15:29;5.60;;;0.65;;
38224;SDS011;24025;48.138;11.428;2023-08-06T07:18:01;0.77;;;0.50;;
38224;SDS011;24025;48.138;11.428;2023-08-06T07:20:32;2.92;;;0.65;;
38224;SDS011;24025;48.138;11.428;2023-08-06T07:23:05;1.30;;;0.60;;
38224;SDS011;24025;48.138;11.428;2023-08-06T07:25:39;1.00;;;0.30;;
38224;SDS011;24025;48.138;11.428;2023-08-06T07:28:10;2.07;;;0.87;;
38224;SDS011;24025;48.138;11.428;2023-08-06T07:30:42;1.13;;;0.20;;
38224;SDS011;24025;48.138;11.428;2023-08-06T07:35:45;1.30;;;0.60;;
38224;SDS011;24025;48.138;11.428;2023-08-06T07:38:16;0.98;;;0.45;;
38224;SDS011;24025;48.138;11.428;2023-08-06T07:40:48;2.10;;;0.60;;
38224;SDS011;24025;48.138;11.428;2023-08-06T07:43:19;0.80;;;0.30;;
38224;SDS011;24025;48.138;11.428;2023-08-06T07:45:50;3.73;;;0.50;;
38224;SDS011;24025;48.138;11.428;2023-08-06T07:48:22;1.87;;;0.43;;
38224;SDS011;24025;48.138;11.428;2023-08-06T07:50:56;1.73;;;0.52;;
38224;SDS011;24025;48.138;11.428;2023-08-06T07:53:28;1.73;;;0.40;;
38224;SDS011;24025;48.138;11.428;2023-08-06T07:56:00;0.98;;;0.40;;
38224;SDS011;24025;48.138;11.428;2023-08-06T07:58:33;1.40;;;0.50;;
38224;SDS011;24025;48.138;11.428;2023-08-06T08:01:05;2.42;;;0.50;;
38224;SDS011;24025;48.138;11.428;2023-08-06T08:03:37;1.98;;;0.40;;
38224;SDS011;24025;48.138;11.428;2023-08-06T08:06:08;0.68;;;0.17;;
38224;SDS011;24025;48.138;11.428;2023-08-06T08:08:40;1.17;;;0.60;;
38224;SDS011;24025;48.138;11.428;2023-08-06T08:11:11;1.07;;;0.40;;
38224;SDS011;24025;48.138;11.428;2023-08-06T08:13:42;1.08;;;0.40;;
38224;SDS011;24025;48.138;11.428;2023-08-06T08:16:14;1.75;;;0.55;;
38224;SDS011;24025;48.138;11.428;2023-08-06T08:18:45;3.28;;;0.45;;
38224;SDS011;24025;48.138;11.428;2023-08-06T08:21:17;3.05;;;0.32;;
38224;SDS011;24025;48.138;11.428;2023-08-06T08:23:49;1.83;;;0.30;;
38224;SDS011;24025;48.138;11.428;2023-08-06T08:26:20;0.85;;;0.50;;
38224;SDS011;24025;48.138;11.428;2023-08-06T08:28:51;2.05;;;0.38;;
38224;SDS011;24025;48.138;11.428;2023-08-06T08:31:23;1.75;;;0.38;;
38224;SDS011;24025;48.138;11.428;2023-08-06T08:33:54;0.82;;;0.20;;
38224;SDS011;24025;48.138;11.428;2023-08-06T08:36:28;1.30;;;0.30;;
38224;SDS011;24025;48.138;11.428;2023-08-06T08:39:00;0.63;;;0.20;;
38224;SDS011;24025;48.138;11.428;2023-08-06T08:41:31;0.50;;;0.10;;
38224;SDS011;24025;48.138;11.428;2023-08-06T08:44:03;0.63;;;0.20;;
38224;SDS011;24025;48.138;11.428;2023-08-06T08:46:36;0.73;;;0.20;;
38224;SDS011;24025;48.138;11.428;2023-08-06T08:49:07;0.82;;;0.20;;
38224;SDS011;24025;48.138;11.428;2023-08-06T08:51:39;0.88;;;0.30;;
38224;SDS011;24025;48.138;11.428;2023-08-06T08:54:11;2.25;;;0.15;;
38224;SDS011;24025;48.138;11.428;2023-08-06T08:56:44;2.63;;;0.28;;
38224;SDS011;24025;48.138;11.428;2023-08-06T08:59:15;0.95;;;0.15;;
38224;SDS011;24025;48.138;11.428;2023-08-06T09:01:47;0.50;;;0.20;;
38224;SDS011;24025;48.138;11.428;2023-08-06T09:04:23;3.97;;;0.20;;
38224;SDS011;24025;48.138;11.428;2023-08-06T09:06:55;2.90;;;0.17;;
38224;SDS011;24025;48.138;11.428;2023-08-06T09:09:30;0.13;;;0.10;;
38224;SDS011;24025;48.138;11.428;2023-08-06T09:12:03;1.00;;;0.30;;
38224;SDS011;24025;48.138;11.428;2023-08-06T09:14:36;2.78;;;0.20;;
38224;SDS011;24025;48.138;11.428;2023-08-06T09:17:07;0.70;;;0.20;;
38224;SDS011;24025;48.138;11.428;2023-08-06T09:19:43;0.57;;;0.20;;
38224;SDS011;24025;48.138;11.428;2023-08-06T09:22:19;0.28;;;0.10;;
38224;SDS011;24025;48.138;11.428;2023-08-06T09:24:51;0.30;;;0.03;;
38224;SDS011;24025;48.138;11.428;2023-08-06T09:27:22;0.47;;;0.08;;
38224;SDS011;24025;48.138;11.428;2023-08-06T09:29:53;0.20;;;0.10;;
38224;SDS011;24025;48.138;11.428;2023-08-06T09:32:25;0.40;;;0.20;;
38224;SDS011;24025;48.138;11.428;2023-08-06T09:34:56;1.75;;;0.15;;
38224;SDS011;24025;48.138;11.428;2023-08-06T09:37:35;0.57;;;0.20;;
38224;SDS011;24025;48.138;11.428;2023-08-06T09:40:23;2.35;;;0.28;;
38224;SDS011;24025;48.138;11.428;2023-08-06T09:42:55;1.00;;;0.10;;
38224;SDS011;24025;48.138;11.428;2023-08-06T09:45:36;0.57;;;0.05;;
38224;SDS011;24025;48.138;11.428;2023-08-06T09:48:08;0.55;;;0.20;;
38224;SDS011;24025;48.138;11.428;2023-08-06T09:50:40;0.80;;;0.15;;
38224;SDS011;24025;48.138;11.428;2023-08-06T09:53:12;0.05;;;0.05;;
38224;SDS011;24025;48.138;11.428;2023-08-06T09:55:44;2.38;;;0.10;;
38224;SDS011;24025;48.138;11.428;2023-08-06T09:58:16;0.47;;;0.10;;
38224;SDS011;24025;48.138;11.428;2023-08-06T10:00:47;0.03;;;0.00;;
38224;SDS011;24025;48.138;11.428;2023-08-06T10:03:18;0.10;;;0.03;;
38224;SDS011;24025;48.138;11.428;2023-08-06T10:05:51;0.82;;;0.00;;
38224;SDS011;24025;48.138;11.428;2023-08-06T10:08:22;1.40;;;0.08;;
38224;SDS011;24025;48.138;11.428;2023-08-06T10:10:54;0.73;;;0.10;;
38224;SDS011;24025;48.138;11.428;2023-08-06T10:13:25;0.52;;;0.17;;
38224;SDS011;24025;48.138;11.428;2023-08-06T10:15:57;1.50;;;0.10;;
38224;SDS011;24025;48.138;11.428;2023-08-06T10:18:29;0.35;;;0.10;;
38224;SDS011;24025;48.138;11.428;2023-08-06T10:21:01;2.75;;;0.10;;
38224;SDS011;24025;48.138;11.428;2023-08-06T10:23:33;0.63;;;0.63;;
38224;SDS011;24025;48.138;11.428;2023-08-06T10:26:04;0.00;;;0.00;;
38224;SDS011;24025;48.138;11.428;2023-08-06T10:28:39;0.13;;;0.00;;
38224;SDS011;24025;48.138;11.428;2023-08-06T10:31:10;1.30;;;0.10;;
38224;SDS011;24025;48.138;11.428;2023-08-06T10:33:42;1.70;;;0.05;;
38224;SDS011;24025;48.138;11.428;2023-08-06T10:36:14;0.10;;;0.00;;
38224;SDS011;24025;48.138;11.428;2023-08-06T10:38:46;0.00;;;0.00;;
38224;SDS011;24025;48.138;11.428;2023-08-06T10:41:28;0.08;;;0.03;;
38224;SDS011;24025;48.138;11.428;2023-08-06T10:44:05;0.52;;;0.00;;
38224;SDS011;24025;48.138;11.428;2023-08-06T10:46:39;0.73;;;0.10;;
38224;SDS011;24025;48.138;11.428;2023-08-06T10:49:10;1.35;;;0.10;;
38224;SDS011;24025;48.138;11.428;2023-08-06T10:51:42;0.85;;;0.10;;
38224;SDS011;24025;48.138;11.428;2023-08-06T10:54:14;0.13;;;0.00;;
38224;SDS011;24025;48.138;11.428;2023-08-06T10:56:46;0.03;;;0.00;;
38224;SDS011;24025;48.138;11.428;2023-08-06T10:59:19;0.32;;;0.00;;
38224;SDS011;24025;48.138;11.428;2023-08-06T11:01:51;0.40;;;0.10;;
38224;SDS011;24025;48.138;11.428;2023-08-06T11:04:23;0.00;;;0.00;;
38224;SDS011;24025;48.138;11.428;2023-08-06T11:06:55;0.05;;;0.00;;
38224;SDS011;24025;48.138;11.428;2023-08-06T11:09:27;0.00;;;0.00;;
38224;SDS011;24025;48.138;11.428;2023-08-06T11:11:58;1.95;;;0.00;;
38224;SDS011;24025;48.138;11.428;2023-08-06T11:14:30;0.08;;;0.00;;
38224;SDS011;24025;48.138;11.428;2023-08-06T11:17:02;0.00;;;0.00;;
38224;SDS011;24025;48.138;11.428;2023-08-06T11:19:33;0.10;;;0.00;;
38224;SDS011;24025;48.138;11.428;2023-08-06T11:22:05;0.45;;;0.10;;
38224;SDS011;24025;48.138;11.428;2023-08-06T11:27:15;0.00;;;0.00;;
38224;SDS011;24025;48.138;11.428;2023-08-06T11:29:47;0.00;;;0.00;;
38224;SDS011;24025;48.138;11.428;2023-08-06T11:32:18;0.00;;;0.00;;
38224;SDS011;24025;48.138;11.428;2023-08-06T11:34:50;0.00;;;0.00;;
38224;SDS011;24025;48.138;11.428;2023-08-06T11:37:21;0.08;;;0.08;;
38224;SDS011;24025;48.138;11.428;2023-08-06T11:39:55;0.10;;;0.00;;
38224;SDS011;24025;48.138;11.428;2023-08-06T11:42:27;0.38;;;0.10;;
38224;SDS011;24025;48.138;11.428;2023-08-06T11:45:02;0.00;;;0.00;;
38224;SDS011;24025;48.138;11.428;2023-08-06T11:47:34;3.63;;;0.00;;
38224;SDS011;24025;48.138;11.428;2023-08-06T11:50:09;0.00;;;0.00;;
38224;SDS011;24025;48.138;11.428;2023-08-06T11:52:40;0.15;;;0.10;;
38224;SDS011;24025;48.138;11.428;2023-08-06T11:55:13;0.00;;;0.00;;
38224;SDS011;24025;48.138;11.428;2023-08-06T11:57:47;1.83;;;0.00;;
38224;SDS011;24025;48.138;11.428;2023-08-06T12:00:20;0.10;;;0.00;;
38224;SDS011;24025;48.138;11.428;2023-08-06T12:02:53;0.10;;;0.00;;
38224;SDS011;24025;48.138;11.428;2023-08-06T12:05:30;0.45;;;0.00;;
38224;SDS011;24025;48.138;11.428;2023-08-06T12:08:02;0.60;;;0.03;;
38224;SDS011;24025;48.138;11.428;2023-08-06T12:10:33;0.10;;;0.00;;
38224;SDS011;24025;48.138;11.428;2023-08-06T12:13:05;0.28;;;0.08;;
38224;SDS011;24025;48.138;11.428;2023-08-06T12:15:36;0.95;;;0.08;;
38224;SDS011;24025;48.138;11.428;2023-08-06T12:18:08;1.63;;;0.20;;
38224;SDS011;24025;48.138;11.428;2023-08-06T12:20:39;0.10;;;0.00;;
38224;SDS011;24025;48.138;11.428;2023-08-06T12:23:11;0.00;;;0.00;;
38224;SDS011;24025;48.138;11.428;2023-08-06T12:25:46;0.20;;;0.00;;
38224;SDS011;24025;48.138;11.428;2023-08-06T12:28:17;0.00;;;0.00;;
38224;SDS011;24025;48.138;11.428;2023-08-06T12:30:50;0.15;;;0.00;;
38224;SDS011;24025;48.138;11.428;2023-08-06T12:33:22;0.45;;;0.10;;
38224;SDS011;24025;48.138;11.428;2023-08-06T12:35:53;0.88;;;0.00;;
38224;SDS011;24025;48.138;11.428;2023-08-06T12:38:26;0.00;;;0.00;;
38224;SDS011;24025;48.138;11.428;2023-08-06T12:40:57;0.08;;;0.08;;
38224;SDS011;24025;48.138;11.428;2023-08-06T12:43:29;0.07;;;0.00;;
38224;SDS011;24025;48.138;11.428;2023-08-06T12:46:00;0.00;;;0.00;;
38224;SDS011;24025;48.138;11.428;2023-08-06T12:48:31;0.03;;;0.00;;
38224;SDS011;24025;48.138;11.428;2023-08-06T12:51:03;0.17;;;0.00;;
38224;SDS011;24025;48.138;11.428;2023-08-06T12:53:34;0.83;;;0.07;;
38224;SDS011;24025;48.138;11.428;2023-08-06T12:56:05;0.63;;;0.00;;
38224;SDS011;24025;48.138;11.428;2023-08-06T12:58:37;1.00;;;0.00;;
38224;SDS011;24025;48.138;11.428;2023-08-06T13:01:10;0.90;;;0.10;;
38224;SDS011;24025;48.138;11.428;2023-08-06T13:03:42;0.93;;;0.30;;
38224;SDS011;24025;48.138;11.428;2023-08-06T13:06:13;0.43;;;0.35;;
38224;SDS011;24025;48.138;11.428;2023-08-06T13:08:45;0.15;;;0.00;;
38224;SDS011;24025;48.138;11.428;2023-08-06T13:11:16;1.27;;;0.00;;
38224;SDS011;24025;48.138;11.428;2023-08-06T13:13:47;0.00;;;0.00;;
38224;SDS011;24025;48.138;11.428;2023-08-06T13:16:19;0.97;;;0.40;;
38224;SDS011;24025;48.138;11.428;2023-08-06T13:18:50;0.00;;;0.00;;
38224;SDS011;24025;48.138;11.428;2023-08-06T13:21:22;2.20;;;0.20;;
38224;SDS011;24025;48.138;11.428;2023-08-06T13:23:53;0.00;;;0.00;;
38224;SDS011;24025;48.138;11.428;2023-08-06T13:26:25;0.10;;;0.00;;
38224;SDS011;24025;48.138;11.428;2023-08-06T13:29:00;0.10;;;0.00;;
38224;SDS011;24025;48.138;11.428;2023-08-06T13:31:31;0.10;;;0.10;;
38224;SDS011;24025;48.138;11.428;2023-08-06T13:34:03;2.00;;;0.10;;
38224;SDS011;24025;48.138;11.428;2023-08-06T13:36:34;0.20;;;0.00;;
38224;SDS011;24025;48.138;11.428;2023-08-06T13:39:06;1.07;;;0.20;;
38224;SDS011;24025;48.138;11.428;2023-08-06T13:41:37;0.43;;;0.00;;
38224;SDS011;24025;48.138;11.428;2023-08-06T13:44:09;0.10;;;0.00;;
38224;SDS011;24025;48.138;11.428;2023-08-06T13:49:13;1.05;;;0.10;;
38224;SDS011;24025;48.138;11.428;2023-08-06T13:51:44;0.20;;;0.00;;
38224;SDS011;24025;48.138;11.428;2023-08-06T13:54:16;0.20;;;0.00;;
38224;SDS011;24025;48.138;11.428;2023-08-06T13:56:48;0.20;;;0.00;;
38224;SDS011;24025;48.138;11.428;2023-08-06T13:59:20;0.10;;;0.10;;
38224;SDS011;24025;48.138;11.428;2023-08-06T14:01:52;0.10;;;0.10;;
38224;SDS011;24025;48.138;11.428;2023-08-06T14:04:26;0.30;;;0.00;;
38224;SDS011;24025;48.138;11.428;2023-08-06T14:06:58;0.00;;;0.00;;
38224;SDS011;24025;48.138;11.428;2023-08-06T14:09:29;0.40;;;0.08;;
38224;SDS011;24025;48.138;11.428;2023-08-06T14:12:01;0.08;;;0.00;;
38224;SDS011;24025;48.138;11.428;2023-08-06T14:14:32;0.00;;;0.00;;
38224;SDS011;24025;48.138;11.428;2023-08-06T14:17:04;0.05;;;0.00;;
38224;SDS011;24025;48.138;11.428;2023-08-06T14:19:36;0.32;;;0.10;;
38224;SDS011;24025;48.138;11.428;2023-08-06T14:22:07;2.60;;;0.10;;
38224;SDS011;24025;48.138;11.428;2023-08-06T14:24:39;1.13;;;0.10;;
38224;SDS011;24025;48.138;11.428;2023-08-06T14:27:10;0.20;;;0.10;;
38224;SDS011;24025;48.138;11.428;2023-08-06T14:29:42;1.75;;;0.20;;
38224;SDS011;24025;48.138;11.428;2023-08-06T14:32:13;1.07;;;0.10;;
38224;SDS011;24025;48.138;11.428;2023-08-06T14:34:45;0.52;;;0.17;;
38224;SDS011;24025;48.138;11.428;2023-08-06T14:37:17;0.30;;;0.10;;
38224;SDS011;24025;48.138;11.428;2023-08-06T14:39:48;0.55;;;0.00;;
38224;SDS011;24025;48.138;11.428;2023-08-06T14:42:20;3.65;;;0.70;;
38224;SDS011;24025;48.138;11.428;2023-08-06T14:44:52;0.52;;;0.47;;
38224;SDS011;24025;48.138;11.428;2023-08-06T14:47:23;0.50;;;0.30;;
38224;SDS011;24025;48.138;11.428;2023-08-06T14:49:54;3.28;;;0.20;;
38224;SDS011;24025;48.138;11.428;2023-08-06T14:52:26;0.63;;;0.10;;
38224;SDS011;24025;48.138;11.428;2023-08-06T14:54:57;2.63;;;0.10;;
38224;SDS011;24025;48.138;11.428;2023-08-06T14:57:29;0.07;;;0.07;;
38224;SDS011;24025;48.138;11.428;2023-08-06T15:00:00;1.25;;;0.10;;
38224;SDS011;24025;48.138;11.428;2023-08-06T15:02:32;2.17;;;0.10;;
38224;SDS011;24025;48.138;11.428;2023-08-06T15:05:03;0.30;;;0.10;;
38224;SDS011;24025;48.138;11.428;2023-08-06T15:07:35;0.10;;;0.10;;
38224;SDS011;24025;48.138;11.428;2023-08-06T15:10:07;0.08;;;0.00;;
38224;SDS011;24025;48.138;11.428;2023-08-06T15:12:57;0.80;;;0.00;;
38224;SDS011;24025;48.138;11.428;2023-08-06T15:15:28;0.40;;;0.10;;
38224;SDS011;24025;48.138;11.428;2023-08-06T15:18:00;0.15;;;0.10;;
38224;SDS011;24025;48.138;11.428;2023-08-06T15:20:31;5.38;;;0.20;;
38224;SDS011;24025;48.138;11.428;2023-08-06T15:23:03;0.30;;;0.00;;